createdAt,value
2023-02-06T00:00:06.816Z,28.00
2023-02-06T00:02:34.737Z,25.02
2023-02-06T00:05:02.480Z,25.42
2023-02-06T00:07:30.552Z,29.50
2023-02-06T00:13:05.017Z,27.67
2023-02-06T00:15:33.668Z,32.17
2023-02-06T00:18:01.643Z,30.67
2023-02-06T00:20:29.974Z,30.98
2023-02-06T00:22:57.856Z,24.48
2023-02-06T00:25:25.864Z,23.30
2023-02-06T00:27:54.103Z,30.80
2023-02-06T00:30:22.058Z,27.25
2023-02-06T00:32:50.162Z,28.80
2023-02-06T00:35:18.451Z,21.55
2023-02-06T00:37:47.237Z,28.75
2023-02-06T00:40:15.113Z,27.70
2023-02-06T00:42:43.030Z,27.00
2023-02-06T00:45:12.055Z,26.67
2023-02-06T00:47:39.883Z,28.05
2023-02-06T00:50:08.073Z,26.60
2023-02-06T00:52:36.027Z,28.73
2023-02-06T00:55:04.121Z,31.35
2023-02-06T00:57:32.169Z,27.02
2023-02-06T01:00:00.994Z,26.63
2023-02-06T01:02:29.112Z,36.72
2023-02-06T01:04:57.305Z,23.95
2023-02-06T01:07:28.082Z,26.85
2023-02-06T01:09:58.358Z,26.17
2023-02-06T01:12:28.024Z,24.33
2023-02-06T01:14:56.116Z,26.15
2023-02-06T01:17:23.846Z,26.20
2023-02-06T01:19:51.675Z,27.45
2023-02-06T01:22:19.638Z,26.42
2023-02-06T01:24:47.874Z,23.27
2023-02-06T01:27:16.024Z,24.42
2023-02-06T01:29:43.922Z,30.00
2023-02-06T01:32:11.776Z,27.92
2023-02-06T01:34:39.780Z,24.45
2023-02-06T01:37:07.943Z,26.30
2023-02-06T01:39:36.058Z,25.52
2023-02-06T01:42:04.084Z,27.45
2023-02-06T01:44:32.630Z,29.50
2023-02-06T01:47:01.186Z,29.25
2023-02-06T01:49:43.873Z,24.63
2023-02-06T01:52:23.214Z,29.42
2023-02-06T01:54:56.444Z,26.95
2023-02-06T01:57:24.384Z,26.55
2023-02-06T01:59:57.866Z,32.47
2023-02-06T02:02:26.142Z,27.15
2023-02-06T02:04:54.668Z,29.30
2023-02-06T02:07:24.708Z,26.98
2023-02-06T02:09:53.300Z,33.17
2023-02-06T02:12:23.441Z,31.42
2023-02-06T02:14:55.369Z,26.77
2023-02-06T02:18:03.064Z,31.98
2023-02-06T02:20:44.681Z,30.77
2023-02-06T02:23:21.573Z,29.50
2023-02-06T02:25:52.209Z,36.60
2023-02-06T02:28:44.892Z,30.60
2023-02-06T02:31:31.390Z,33.33
2023-02-06T02:34:54.391Z,34.30
2023-02-06T02:37:43.686Z,31.65
2023-02-06T02:40:37.186Z,38.08
2023-02-06T02:43:19.351Z,32.88
2023-02-06T02:46:00.730Z,33.33
2023-02-06T02:48:39.777Z,37.85
2023-02-06T02:51:08.320Z,36.08
2023-02-06T02:53:36.959Z,37.88
2023-02-06T02:56:25.517Z,28.38
2023-02-06T02:59:16.342Z,37.17
2023-02-06T03:01:56.167Z,33.55
2023-02-06T03:04:48.498Z,35.58
2023-02-06T03:07:24.892Z,43.13
2023-02-06T03:10:28.833Z,37.50
2023-02-06T03:13:03.372Z,39.92
2023-02-06T03:15:46.911Z,34.83
2023-02-06T03:18:29.936Z,38.38
2023-02-06T03:20:57.932Z,38.40
2023-02-06T03:23:29.478Z,34.78
2023-02-06T03:25:59.293Z,39.70
2023-02-06T03:28:33.238Z,31.52
2023-02-06T03:31:02.617Z,40.85
2023-02-06T03:33:40.500Z,34.75
2023-02-06T03:36:10.132Z,30.38
2023-02-06T03:38:41.184Z,38.55
2023-02-06T03:41:18.580Z,35.13
2023-02-06T03:43:47.540Z,31.58
2023-02-06T03:46:16.504Z,37.22
2023-02-06T03:48:46.487Z,34.90
2023-02-06T03:51:23.435Z,36.08
2023-02-06T03:53:52.399Z,36.55
2023-02-06T03:56:29.434Z,38.35
2023-02-06T03:58:57.257Z,34.08
2023-02-06T04:01:25.119Z,37.25
2023-02-06T04:03:53.112Z,38.63
2023-02-06T04:06:21.104Z,40.80
2023-02-06T04:08:49.816Z,39.38
2023-02-06T04:11:17.857Z,36.15
2023-02-06T04:13:47.516Z,39.95
2023-02-06T04:16:27.215Z,36.97
2023-02-06T04:18:55.319Z,38.13
2023-02-06T04:21:23.656Z,39.45
2023-02-06T04:23:51.644Z,44.45
2023-02-06T04:26:27.949Z,41.08
2023-02-06T04:28:56.445Z,42.33
2023-02-06T04:31:24.318Z,47.13
2023-02-06T04:33:52.818Z,38.85
2023-02-06T04:36:20.671Z,35.95
2023-02-06T04:38:48.967Z,40.75
2023-02-06T04:41:16.820Z,47.50
2023-02-06T04:43:44.913Z,47.85
2023-02-06T04:46:13.345Z,40.58
2023-02-06T04:48:41.268Z,39.90
2023-02-06T04:51:09.110Z,39.35
2023-02-06T04:53:38.133Z,44.80
2023-02-06T04:56:11.938Z,46.15
2023-02-06T04:58:40.177Z,42.95
2023-02-06T05:01:09.441Z,46.72
2023-02-06T05:03:38.322Z,40.67
2023-02-06T05:06:06.575Z,45.67
2023-02-06T05:08:35.185Z,45.38
2023-02-06T05:11:03.718Z,43.95
2023-02-06T05:13:34.099Z,42.08
2023-02-06T05:16:07.317Z,44.42
2023-02-06T05:18:35.540Z,45.10
2023-02-06T05:21:03.588Z,44.13
2023-02-06T05:23:32.553Z,35.72
2023-02-06T05:26:00.817Z,49.50
2023-02-06T05:28:33.566Z,39.63
2023-02-06T05:31:02.204Z,38.50
2023-02-06T05:33:30.245Z,42.10
2023-02-06T05:36:03.292Z,44.95
2023-02-06T05:38:31.238Z,45.65
2023-02-06T05:41:00.401Z,41.97
2023-02-06T05:43:29.017Z,42.20
2023-02-06T05:45:56.896Z,35.72
2023-02-06T05:48:24.921Z,40.78
2023-02-06T05:50:52.880Z,43.90
2023-02-06T05:53:21.138Z,41.50
2023-02-06T05:55:49.046Z,44.75
2023-02-06T05:58:17.442Z,39.55
2023-02-06T06:00:45.462Z,42.15
2023-02-06T06:03:14.039Z,41.33
2023-02-06T06:05:42.344Z,43.92
2023-02-06T06:08:10.618Z,42.83
2023-02-06T06:10:38.513Z,36.80
2023-02-06T06:13:10.065Z,39.20
2023-02-06T06:15:39.471Z,29.83
2023-02-06T06:18:07.877Z,41.90
2023-02-06T06:20:39.628Z,38.15
2023-02-06T06:23:07.746Z,45.92
2023-02-06T06:25:36.460Z,41.92
2023-02-06T06:28:04.685Z,32.33
2023-02-06T06:30:35.759Z,34.10
2023-02-06T06:33:03.766Z,38.25
2023-02-06T06:35:33.456Z,47.72
2023-02-06T06:38:01.493Z,29.35
2023-02-06T06:40:29.936Z,33.35
2023-02-06T06:42:58.739Z,30.65
2023-02-06T06:45:26.784Z,32.70
2023-02-06T06:47:55.445Z,32.92
2023-02-06T06:50:23.563Z,32.30
2023-02-06T06:52:54.503Z,28.75
2023-02-06T06:55:22.672Z,31.23
2023-02-06T06:57:51.047Z,30.33
2023-02-06T07:00:19.069Z,29.10
2023-02-06T07:02:47.920Z,28.88
2023-02-06T07:05:15.957Z,26.67
2023-02-06T07:07:44.568Z,25.02
2023-02-06T07:10:12.744Z,32.80
2023-02-06T07:12:44.984Z,27.98
2023-02-06T07:15:13.544Z,25.08
2023-02-06T07:17:41.396Z,28.52
2023-02-06T07:20:10.197Z,31.83
2023-02-06T07:22:39.844Z,32.17
2023-02-06T07:25:11.034Z,33.38
2023-02-06T07:27:39.674Z,31.00
2023-02-06T07:30:10.795Z,25.85
2023-02-06T07:32:39.807Z,31.27
2023-02-06T07:35:07.966Z,27.83
2023-02-06T07:37:37.587Z,29.83
2023-02-06T07:40:07.043Z,28.75
2023-02-06T07:42:36.040Z,44.95
2023-02-06T07:45:15.687Z,30.38
2023-02-06T07:47:44.055Z,29.42
2023-02-06T07:50:11.896Z,26.40
2023-02-06T07:52:42.624Z,33.50
2023-02-06T07:55:15.407Z,26.13
2023-02-06T07:57:45.020Z,33.17
2023-02-06T08:00:14.769Z,33.22
2023-02-06T08:02:45.700Z,28.42
2023-02-06T08:05:15.868Z,29.50
2023-02-06T08:07:44.177Z,29.75
2023-02-06T08:10:12.182Z,25.15
2023-02-06T08:12:59.992Z,28.08
2023-02-06T08:15:30.211Z,28.00
2023-02-06T08:17:58.543Z,28.90
2023-02-06T08:20:26.537Z,24.98
2023-02-06T08:22:55.111Z,27.30
2023-02-06T08:25:22.909Z,23.70
2023-02-06T08:27:55.266Z,26.17
2023-02-06T08:30:24.769Z,28.80
2023-02-06T08:32:53.132Z,25.30
2023-02-06T08:35:22.117Z,26.35
2023-02-06T08:37:51.695Z,30.17
2023-02-06T08:40:21.364Z,30.83
2023-02-06T08:42:52.457Z,29.25
2023-02-06T08:45:20.459Z,34.00
2023-02-06T08:47:48.314Z,30.52
2023-02-06T08:50:16.499Z,29.10
2023-02-06T08:52:44.520Z,31.98
2023-02-06T08:55:12.514Z,32.10
2023-02-06T08:57:40.828Z,19.02
2023-02-06T09:00:11.519Z,24.67
2023-02-06T09:02:39.615Z,24.83
2023-02-06T09:05:08.853Z,27.27
2023-02-06T09:07:37.415Z,32.40
2023-02-06T09:10:28.326Z,28.15
2023-02-06T09:12:57.757Z,26.58
2023-02-06T09:15:28.994Z,26.65
2023-02-06T09:17:57.136Z,22.52
2023-02-06T09:20:26.789Z,32.50
2023-02-06T09:22:54.869Z,29.48
2023-02-06T09:25:22.997Z,27.10
2023-02-06T09:27:52.132Z,25.00
2023-02-06T09:30:20.358Z,25.85
2023-02-06T09:32:52.090Z,25.77
2023-02-06T09:35:21.473Z,25.92
2023-02-06T09:37:54.935Z,26.35
2023-02-06T09:40:35.592Z,23.92
2023-02-06T09:43:07.523Z,20.23
2023-02-06T09:45:35.698Z,23.75
2023-02-06T09:53:11.283Z,22.10
2023-02-06T09:55:53.671Z,21.20
2023-02-06T09:58:35.767Z,19.23
2023-02-06T10:01:30.440Z,22.58
2023-02-06T10:04:20.175Z,21.40
2023-02-06T10:06:57.007Z,21.25
2023-02-06T10:09:52.107Z,21.40
2023-02-06T10:12:40.083Z,18.77
2023-02-06T10:15:24.684Z,14.85
2023-02-06T10:18:07.644Z,16.52
2023-02-06T10:20:49.905Z,12.10
2023-02-06T10:23:55.105Z,11.52
2023-02-06T10:26:27.310Z,15.18
2023-02-06T10:28:57.198Z,18.50
2023-02-06T10:39:09.172Z,18.52
2023-02-06T10:41:54.939Z,14.90
2023-02-06T10:44:35.969Z,16.63
2023-02-06T10:47:04.958Z,16.48
2023-02-06T10:49:41.451Z,18.42
2023-02-06T10:52:23.963Z,17.25
2023-02-06T10:54:56.636Z,16.63
2023-02-06T10:57:25.421Z,20.58
2023-02-06T10:59:53.885Z,17.73
2023-02-06T11:03:07.246Z,18.52
2023-02-06T11:05:38.596Z,17.25
2023-02-06T11:08:39.315Z,21.92
2023-02-06T11:11:21.321Z,20.40
2023-02-06T11:13:56.060Z,23.00
2023-02-06T11:16:28.384Z,21.58
2023-02-06T11:18:59.122Z,17.27
2023-02-06T11:21:45.671Z,24.60
2023-02-06T11:24:19.363Z,20.85
2023-02-06T11:26:57.551Z,22.65
2023-02-06T11:29:27.276Z,25.92
2023-02-06T11:32:03.499Z,23.00
2023-02-06T11:34:33.791Z,22.45
2023-02-06T11:37:27.206Z,22.25
2023-02-06T11:40:13.994Z,21.67
2023-02-06T11:42:43.151Z,20.15
2023-02-06T11:45:33.502Z,19.55
2023-02-06T11:48:03.111Z,23.73
2023-02-06T11:50:35.766Z,21.00
2023-02-06T11:53:15.850Z,25.73
2023-02-06T11:55:47.994Z,20.42
2023-02-06T11:58:15.940Z,27.00
2023-02-06T12:00:53.165Z,28.77
2023-02-06T12:03:40.028Z,26.75
2023-02-06T12:06:12.709Z,26.77
2023-02-06T12:08:51.405Z,30.77
2023-02-06T12:11:33.106Z,27.17
2023-02-06T12:14:14.292Z,23.23
2023-02-06T12:16:46.174Z,27.48
2023-02-06T12:19:26.967Z,28.63
2023-02-06T12:21:56.539Z,27.05
2023-02-06T12:24:39.087Z,21.38
2023-02-06T12:27:39.732Z,26.17
2023-02-06T12:30:25.679Z,26.15
2023-02-06T12:33:17.604Z,27.10
2023-02-06T12:36:21.870Z,29.15
2023-02-06T12:39:01.294Z,28.75
2023-02-06T12:41:44.038Z,27.30
2023-02-06T12:44:53.208Z,26.33
2023-02-06T12:47:32.018Z,30.13
2023-02-06T12:50:16.699Z,26.42
2023-02-06T12:53:14.009Z,22.92
2023-02-06T12:55:57.003Z,24.13
2023-02-06T12:58:42.700Z,21.63
2023-02-06T13:01:37.256Z,13.40
2023-02-06T13:04:17.976Z,19.67
2023-02-06T13:06:50.985Z,28.17
2023-02-06T13:09:24.551Z,24.33
2023-02-06T13:11:53.130Z,21.10
2023-02-06T13:14:26.900Z,23.08
2023-02-06T13:17:11.927Z,21.65
2023-02-06T13:19:40.261Z,22.88
2023-02-06T13:22:11.284Z,25.63
2023-02-06T13:24:41.181Z,25.70
2023-02-06T13:27:09.068Z,28.17
2023-02-06T13:29:51.745Z,27.45
2023-02-06T13:32:22.811Z,24.80
2023-02-06T13:35:00.862Z,26.70
2023-02-06T13:40:30.832Z,21.00
2023-02-06T13:43:24.042Z,16.75
2023-02-06T13:46:28.197Z,19.83
2023-02-06T13:48:59.116Z,20.45
2023-02-06T13:51:36.373Z,23.98
2023-02-06T13:54:16.949Z,22.85
2023-02-06T13:57:04.941Z,20.70
2023-02-06T13:59:41.450Z,25.75
2023-02-06T14:02:30.257Z,19.38
2023-02-06T14:04:58.332Z,20.35
2023-02-06T14:07:50.467Z,10.43
2023-02-06T14:11:08.480Z,22.92
2023-02-06T14:13:40.290Z,19.65
2023-02-06T14:16:39.929Z,15.90
2023-02-06T14:19:45.414Z,15.07
2023-02-06T14:22:22.402Z,22.55
2023-02-06T14:25:17.997Z,20.52
2023-02-06T14:28:21.281Z,19.02
2023-02-06T14:31:14.852Z,18.65
2023-02-06T14:33:54.593Z,20.80
2023-02-06T14:36:41.098Z,17.50
2023-02-06T14:39:33.838Z,16.63
2023-02-06T14:42:12.530Z,22.48
2023-02-06T14:44:40.599Z,17.58
2023-02-06T14:47:23.131Z,23.15
2023-02-06T14:49:53.921Z,22.15
2023-02-06T14:52:25.952Z,21.05
2023-02-06T14:54:54.634Z,22.02
2023-02-06T14:57:33.408Z,18.80
2023-02-06T15:00:04.555Z,20.90
2023-02-06T15:02:34.696Z,21.95
2023-02-06T15:05:03.258Z,26.02
2023-02-06T15:07:43.146Z,23.25
2023-02-06T15:10:15.337Z,17.10
2023-02-06T15:12:51.716Z,22.30
2023-02-06T15:15:29.881Z,23.95
2023-02-06T15:18:03.044Z,20.67
2023-02-06T15:20:40.470Z,24.57
2023-02-06T15:23:34.419Z,24.83
2023-02-06T15:26:23.506Z,21.02
2023-02-06T15:28:57.721Z,26.17
2023-02-06T15:31:29.282Z,21.80
2023-02-06T15:34:00.889Z,22.25
2023-02-06T15:36:38.393Z,23.23
2023-02-06T15:39:08.006Z,23.20
2023-02-06T15:41:36.499Z,21.02
2023-02-06T15:44:13.055Z,22.38
2023-02-06T15:46:41.337Z,19.98
2023-02-06T15:49:19.377Z,20.60
2023-02-06T15:51:52.758Z,20.70
2023-02-06T15:54:26.242Z,23.50
2023-02-06T15:57:04.872Z,15.73
2023-02-06T15:59:40.360Z,18.40
2023-02-06T16:02:33.129Z,23.45
2023-02-06T16:05:01.103Z,20.02
2023-02-06T16:07:36.039Z,23.92
2023-02-06T16:10:19.795Z,18.60
2023-02-06T16:12:47.711Z,23.48
2023-02-06T16:15:31.416Z,21.95
2023-02-06T16:18:02.227Z,25.35
2023-02-06T19:39:05.354Z,29.45
2023-02-06T19:41:43.251Z,34.47
2023-02-06T19:44:15.024Z,30.48
2023-02-06T19:46:45.170Z,31.92
2023-02-06T19:49:14.835Z,34.53
2023-02-06T19:51:45.192Z,34.92
2023-02-06T19:54:35.048Z,31.92
2023-02-06T19:57:04.273Z,32.45
2023-02-06T19:59:36.214Z,33.17
2023-02-06T20:02:15.836Z,39.00
2023-02-06T20:05:05.096Z,30.73
2023-02-06T20:08:02.791Z,34.95
2023-02-06T20:10:35.249Z,35.75
2023-02-06T20:13:08.663Z,31.75
2023-02-06T20:15:39.764Z,32.58
2023-02-06T20:18:09.325Z,36.42
2023-02-06T20:20:40.009Z,28.98
2023-02-06T20:23:08.081Z,28.83
2023-02-06T20:25:39.249Z,29.90
2023-02-06T20:28:14.635Z,29.60
2023-02-06T20:30:43.778Z,33.50
2023-02-06T20:33:14.864Z,29.60
2023-02-06T20:35:45.396Z,36.15
2023-02-06T20:38:14.702Z,29.60
2023-02-06T20:40:50.256Z,29.08
2023-02-06T20:43:18.964Z,30.98
2023-02-06T20:45:47.131Z,29.40
2023-02-06T20:48:15.158Z,32.00
2023-02-06T20:50:45.463Z,31.98
2023-02-06T20:53:14.448Z,31.50
2023-02-06T20:56:19.719Z,28.02
2023-02-06T20:58:52.185Z,22.13
2023-02-06T21:01:27.048Z,29.40
2023-02-06T21:03:57.093Z,34.13
2023-02-06T21:06:29.402Z,29.00
2023-02-06T21:09:00.315Z,30.37
2023-02-06T21:11:30.426Z,25.40
2023-02-06T21:14:02.514Z,29.38
2023-02-06T21:16:31.406Z,29.00
2023-02-06T21:18:59.839Z,31.48
2023-02-06T21:21:28.329Z,24.27
2023-02-06T21:24:00.443Z,29.40
2023-02-06T21:26:30.371Z,24.60
2023-02-06T21:29:11.388Z,22.55
2023-02-06T21:32:14.574Z,24.97
2023-02-06T21:34:43.002Z,25.55
2023-02-06T21:37:11.880Z,19.95
2023-02-06T21:39:41.191Z,20.45
2023-02-06T21:42:12.061Z,24.67
2023-02-06T21:44:43.785Z,21.65
2023-02-06T21:47:16.283Z,22.40
2023-02-06T21:49:46.530Z,19.77
2023-02-06T21:52:15.155Z,15.48
2023-02-06T21:54:43.637Z,20.35
2023-02-06T21:57:11.534Z,17.05
2023-02-06T21:59:44.481Z,20.25
2023-02-06T22:02:17.147Z,21.42
2023-02-06T22:04:45.765Z,18.02
2023-02-06T22:07:33.806Z,19.73
2023-02-06T22:10:08.397Z,16.98
2023-02-06T22:12:43.732Z,19.50
2023-02-06T22:15:12.579Z,18.98
2023-02-06T22:17:40.867Z,22.98
2023-02-06T22:20:09.518Z,17.35
2023-02-06T22:22:38.839Z,20.52
2023-02-06T22:25:09.221Z,21.50
2023-02-06T22:27:38.202Z,17.73
2023-02-06T22:30:07.461Z,16.75
2023-02-06T22:32:39.426Z,18.63
2023-02-06T22:35:07.828Z,15.68
2023-02-06T22:37:35.865Z,18.83
2023-02-06T22:40:05.078Z,18.38
2023-02-06T22:42:35.141Z,16.98
2023-02-06T22:45:04.570Z,19.58
2023-02-06T22:47:35.358Z,18.58
2023-02-06T22:50:03.617Z,17.23
2023-02-06T22:52:50.490Z,18.40
2023-02-06T22:55:18.591Z,19.52
2023-02-06T22:57:46.696Z,15.52
2023-02-06T23:00:16.868Z,19.88
2023-02-06T23:02:45.947Z,16.10
2023-02-06T23:05:14.018Z,17.35
2023-02-06T23:07:41.987Z,18.98
2023-02-06T23:10:10.094Z,17.13
2023-02-06T23:12:38.390Z,15.52
2023-02-06T23:15:08.064Z,13.55
2023-02-06T23:17:37.619Z,18.42
2023-02-06T23:20:07.206Z,16.38
2023-02-06T23:22:35.880Z,16.50
2023-02-06T23:25:03.995Z,18.60
2023-02-06T23:27:34.695Z,24.25
2023-02-06T23:30:02.720Z,21.58
2023-02-06T23:32:30.988Z,24.38
2023-02-06T23:35:00.025Z,21.35
2023-02-06T23:37:27.925Z,19.17
2023-02-06T23:39:55.884Z,20.92
2023-02-06T23:42:23.952Z,21.27
2023-02-06T23:44:52.628Z,18.42
2023-02-06T23:47:22.319Z,21.77
2023-02-06T23:49:50.487Z,20.98
2023-02-06T23:52:18.896Z,20.92
2023-02-06T23:54:46.922Z,16.90
2023-02-06T23:57:14.863Z,19.80
2023-02-06T23:59:42.579Z,21.98
